sensor_id;sensor_type;location;lat;lon;timestamp;P1;durP1;ratioP1;P2;durP2;ratioP2
86335;SDS011;77070;0.000;0.000;2024-03-23T00:51:55;7.50;;;3.90;;
86335;SDS011;77070;0.000;0.000;2024-03-23T00:54:22;8.90;;;3.50;;
86335;SDS011;77070;0.000;0.000;2024-03-23T00:56:48;6.40;;;3.20;;
86335;SDS011;77070;0.000;0.000;2024-03-23T00:59:15;5.60;;;3.10;;
86335;SDS011;77070;0.000;0.000;2024-03-23T01:01:42;4.70;;;2.90;;
86335;SDS011;77070;0.000;0.000;2024-03-23T01:04:09;6.90;;;3.90;;
86335;SDS011;77070;0.000;0.000;2024-03-23T01:06:36;9.30;;;4.30;;
86335;SDS011;77070;0.000;0.000;2024-03-23T01:09:03;6.60;;;3.50;;
86335;SDS011;77070;0.000;0.000;2024-03-23T01:11:30;5.90;;;3.30;;
86335;SDS011;77070;0.000;0.000;2024-03-23T01:13:57;6.50;;;3.70;;
86335;SDS011;77070;0.000;0.000;2024-03-23T01:16:24;9.40;;;4.30;;
86335;SDS011;77070;0.000;0.000;2024-03-23T01:18:52;9.80;;;4.10;;
86335;SDS011;77070;0.000;0.000;2024-03-23T01:21:19;7.30;;;3.20;;
86335;SDS011;77070;0.000;0.000;2024-03-23T01:23:46;6.00;;;3.10;;
86335;SDS011;77070;0.000;0.000;2024-03-23T01:26:13;6.30;;;3.60;;
86335;SDS011;77070;0.000;0.000;2024-03-23T01:28:40;7.00;;;3.90;;
86335;SDS011;77070;0.000;0.000;2024-03-23T01:31:07;5.90;;;3.30;;
86335;SDS011;77070;0.000;0.000;2024-03-23T01:33:34;7.30;;;3.60;;
86335;SDS011;77070;0.000;0.000;2024-03-23T01:36:01;8.10;;;4.10;;
86335;SDS011;77070;0.000;0.000;2024-03-23T01:38:28;5.60;;;3.20;;
86335;SDS011;77070;0.000;0.000;2024-03-23T01:40:58;7.90;;;4.10;;
86335;SDS011;77070;0.000;0.000;2024-03-23T01:43:25;6.20;;;3.00;;
86335;SDS011;77070;0.000;0.000;2024-03-23T01:45:52;5.90;;;2.90;;
86335;SDS011;77070;0.000;0.000;2024-03-23T01:48:20;5.30;;;2.90;;
86335;SDS011;77070;0.000;0.000;2024-03-23T01:50:47;6.40;;;3.30;;
86335;SDS011;77070;0.000;0.000;2024-03-23T01:53:15;5.10;;;2.90;;
86335;SDS011;77070;0.000;0.000;2024-03-23T01:55:44;5.80;;;2.90;;
86335;SDS011;77070;0.000;0.000;2024-03-23T01:58:11;7.10;;;4.00;;
86335;SDS011;77070;0.000;0.000;2024-03-23T02:00:37;6.40;;;3.30;;
86335;SDS011;77070;0.000;0.000;2024-03-23T02:03:21;9.60;;;3.10;;
86335;SDS011;77070;0.000;0.000;2024-03-23T02:05:50;5.30;;;3.00;;
86335;SDS011;77070;0.000;0.000;2024-03-23T02:08:18;6.10;;;3.00;;
86335;SDS011;77070;0.000;0.000;2024-03-23T02:10:47;8.20;;;3.40;;
86335;SDS011;77070;0.000;0.000;2024-03-23T02:13:15;5.00;;;2.80;;
86335;SDS011;77070;0.000;0.000;2024-03-23T02:15:45;5.00;;;3.00;;
86335;SDS011;77070;0.000;0.000;2024-03-23T02:18:12;5.20;;;3.30;;
86335;SDS011;77070;0.000;0.000;2024-03-23T02:20:39;4.90;;;3.10;;
86335;SDS011;77070;0.000;0.000;2024-03-23T02:23:12;6.50;;;3.50;;
86335;SDS011;77070;0.000;0.000;2024-03-23T02:25:40;7.10;;;4.40;;
86335;SDS011;77070;0.000;0.000;2024-03-23T02:28:07;5.60;;;3.60;;
86335;SDS011;77070;0.000;0.000;2024-03-23T02:30:34;5.50;;;3.30;;
86335;SDS011;77070;0.000;0.000;2024-03-23T02:33:02;6.30;;;3.00;;
86335;SDS011;77070;0.000;0.000;2024-03-23T02:35:29;4.60;;;2.40;;
86335;SDS011;77070;0.000;0.000;2024-03-23T02:37:56;5.70;;;3.30;;
86335;SDS011;77070;0.000;0.000;2024-03-23T02:40:23;8.00;;;3.60;;
86335;SDS011;77070;0.000;0.000;2024-03-23T02:42:51;7.70;;;3.90;;
86335;SDS011;77070;0.000;0.000;2024-03-23T02:45:18;5.80;;;3.40;;
86335;SDS011;77070;0.000;0.000;2024-03-23T02:47:45;5.20;;;3.10;;
86335;SDS011;77070;0.000;0.000;2024-03-23T02:50:12;7.10;;;4.40;;
86335;SDS011;77070;0.000;0.000;2024-03-23T02:52:41;6.70;;;3.60;;
86335;SDS011;77070;0.000;0.000;2024-03-23T02:55:08;7.70;;;3.70;;
86335;SDS011;77070;0.000;0.000;2024-03-23T02:57:35;6.20;;;2.80;;
86335;SDS011;77070;0.000;0.000;2024-03-23T03:00:02;5.70;;;2.50;;
86335;SDS011;77070;0.000;0.000;2024-03-23T03:07:25;5.20;;;3.40;;
86335;SDS011;77070;0.000;0.000;2024-03-23T03:09:52;8.10;;;3.60;;
86335;SDS011;77070;0.000;0.000;2024-03-23T03:12:19;7.40;;;4.40;;
86335;SDS011;77070;0.000;0.000;2024-03-23T03:14:46;6.20;;;3.30;;
86335;SDS011;77070;0.000;0.000;2024-03-23T03:17:13;9.30;;;3.90;;
86335;SDS011;77070;0.000;0.000;2024-03-23T03:19:41;5.60;;;3.60;;
86335;SDS011;77070;0.000;0.000;2024-03-23T03:22:08;6.90;;;4.00;;
86335;SDS011;77070;0.000;0.000;2024-03-23T03:24:35;8.60;;;4.30;;
86335;SDS011;77070;0.000;0.000;2024-03-23T03:27:02;8.40;;;4.50;;
86335;SDS011;77070;0.000;0.000;2024-03-23T03:29:30;10.00;;;4.90;;
86335;SDS011;77070;0.000;0.000;2024-03-23T03:32:02;6.80;;;4.20;;
86335;SDS011;77070;0.000;0.000;2024-03-23T03:34:30;7.00;;;4.20;;
86335;SDS011;77070;0.000;0.000;2024-03-23T03:36:57;6.90;;;3.70;;
86335;SDS011;77070;0.000;0.000;2024-03-23T03:39:24;8.00;;;4.20;;
86335;SDS011;77070;0.000;0.000;2024-03-23T03:41:51;7.40;;;4.20;;
86335;SDS011;77070;0.000;0.000;2024-03-23T03:44:19;7.80;;;3.90;;
86335;SDS011;77070;0.000;0.000;2024-03-23T03:46:45;8.60;;;3.90;;
86335;SDS011;77070;0.000;0.000;2024-03-23T03:49:12;5.70;;;3.20;;
86335;SDS011;77070;0.000;0.000;2024-03-23T03:51:39;6.50;;;3.70;;
86335;SDS011;77070;0.000;0.000;2024-03-23T03:54:06;5.20;;;2.90;;
86335;SDS011;77070;0.000;0.000;2024-03-23T03:56:48;5.90;;;2.90;;
86335;SDS011;77070;0.000;0.000;2024-03-23T03:59:22;5.50;;;3.40;;
86335;SDS011;77070;0.000;0.000;2024-03-23T04:01:48;5.60;;;3.20;;
86335;SDS011;77070;0.000;0.000;2024-03-23T04:04:15;6.90;;;4.60;;
86335;SDS011;77070;0.000;0.000;2024-03-23T04:06:43;5.50;;;3.40;;
86335;SDS011;77070;0.000;0.000;2024-03-23T04:09:10;8.50;;;3.50;;
86335;SDS011;77070;0.000;0.000;2024-03-23T04:11:38;8.20;;;4.40;;
86335;SDS011;77070;0.000;0.000;2024-03-23T04:14:06;10.60;;;7.30;;
86335;SDS011;77070;0.000;0.000;2024-03-23T04:16:34;7.80;;;4.00;;
86335;SDS011;77070;0.000;0.000;2024-03-23T04:19:07;9.60;;;4.70;;
86335;SDS011;77070;0.000;0.000;2024-03-23T04:21:36;10.80;;;5.00;;
86335;SDS011;77070;0.000;0.000;2024-03-23T04:24:04;16.40;;;7.50;;
86335;SDS011;77070;0.000;0.000;2024-03-23T04:26:42;9.00;;;4.90;;
86335;SDS011;77070;0.000;0.000;2024-03-23T04:29:09;9.20;;;5.10;;
86335;SDS011;77070;0.000;0.000;2024-03-23T04:31:37;10.40;;;4.80;;
86335;SDS011;77070;0.000;0.000;2024-03-23T04:34:07;8.30;;;4.80;;
86335;SDS011;77070;0.000;0.000;2024-03-23T04:36:34;7.50;;;2.90;;
86335;SDS011;77070;0.000;0.000;2024-03-23T04:39:01;6.90;;;3.50;;
86335;SDS011;77070;0.000;0.000;2024-03-23T04:41:28;5.60;;;2.40;;
86335;SDS011;77070;0.000;0.000;2024-03-23T04:43:56;6.30;;;2.90;;
86335;SDS011;77070;0.000;0.000;2024-03-23T04:46:23;5.40;;;3.40;;
86335;SDS011;77070;0.000;0.000;2024-03-23T04:48:50;7.50;;;2.80;;
86335;SDS011;77070;0.000;0.000;2024-03-23T04:51:20;4.60;;;2.40;;
86335;SDS011;77070;0.000;0.000;2024-03-23T04:53:48;6.80;;;2.60;;
86335;SDS011;77070;0.000;0.000;2024-03-23T04:56:15;4.30;;;2.60;;
86335;SDS011;77070;0.000;0.000;2024-03-23T04:58:43;6.70;;;3.20;;
86335;SDS011;77070;0.000;0.000;2024-03-23T05:01:11;3.70;;;2.20;;
86335;SDS011;77070;0.000;0.000;2024-03-23T05:03:38;6.90;;;3.30;;
86335;SDS011;77070;0.000;0.000;2024-03-23T05:06:05;7.50;;;3.90;;
86335;SDS011;77070;0.000;0.000;2024-03-23T05:08:32;7.30;;;4.10;;
86335;SDS011;77070;0.000;0.000;2024-03-23T05:10:59;6.30;;;2.90;;
86335;SDS011;77070;0.000;0.000;2024-03-23T05:13:26;6.70;;;4.60;;
86335;SDS011;77070;0.000;0.000;2024-03-23T05:15:54;4.70;;;3.00;;
86335;SDS011;77070;0.000;0.000;2024-03-23T05:18:21;9.10;;;6.50;;
86335;SDS011;77070;0.000;0.000;2024-03-23T05:20:48;7.20;;;4.20;;
86335;SDS011;77070;0.000;0.000;2024-03-23T05:23:23;7.80;;;5.50;;
86335;SDS011;77070;0.000;0.000;2024-03-23T05:25:50;8.50;;;3.50;;
86335;SDS011;77070;0.000;0.000;2024-03-23T05:28:18;6.80;;;3.50;;
86335;SDS011;77070;0.000;0.000;2024-03-23T05:30:54;6.70;;;3.50;;
86335;SDS011;77070;0.000;0.000;2024-03-23T05:33:23;6.40;;;3.60;;
86335;SDS011;77070;0.000;0.000;2024-03-23T05:36:00;7.30;;;3.30;;
86335;SDS011;77070;0.000;0.000;2024-03-23T05:38:30;5.10;;;3.10;;
86335;SDS011;77070;0.000;0.000;2024-03-23T05:40:58;7.60;;;3.10;;
86335;SDS011;77070;0.000;0.000;2024-03-23T05:43:26;3.80;;;2.60;;
86335;SDS011;77070;0.000;0.000;2024-03-23T05:45:55;6.40;;;3.50;;
86335;SDS011;77070;0.000;0.000;2024-03-23T05:48:23;5.10;;;3.00;;
86335;SDS011;77070;0.000;0.000;2024-03-23T05:50:50;5.90;;;2.80;;
86335;SDS011;77070;0.000;0.000;2024-03-23T05:53:18;4.20;;;2.60;;
86335;SDS011;77070;0.000;0.000;2024-03-23T05:55:50;4.10;;;2.40;;
86335;SDS011;77070;0.000;0.000;2024-03-23T05:58:20;4.90;;;2.90;;
86335;SDS011;77070;0.000;0.000;2024-03-23T06:00:47;6.10;;;3.30;;
86335;SDS011;77070;0.000;0.000;2024-03-23T06:03:13;7.50;;;3.90;;
86335;SDS011;77070;0.000;0.000;2024-03-23T06:05:40;7.40;;;3.70;;
86335;SDS011;77070;0.000;0.000;2024-03-23T06:08:09;6.10;;;3.60;;
86335;SDS011;77070;0.000;0.000;2024-03-23T06:10:36;7.80;;;3.60;;
86335;SDS011;77070;0.000;0.000;2024-03-23T06:13:07;6.30;;;2.80;;
86335;SDS011;77070;0.000;0.000;2024-03-23T06:15:34;5.80;;;3.30;;
86335;SDS011;77070;0.000;0.000;2024-03-23T06:18:04;6.90;;;3.80;;
86335;SDS011;77070;0.000;0.000;2024-03-23T06:20:32;5.60;;;2.90;;
86335;SDS011;77070;0.000;0.000;2024-03-23T06:23:00;6.00;;;3.00;;
86335;SDS011;77070;0.000;0.000;2024-03-23T06:25:28;5.70;;;3.00;;
86335;SDS011;77070;0.000;0.000;2024-03-23T06:27:56;5.00;;;2.90;;
86335;SDS011;77070;0.000;0.000;2024-03-23T06:30:24;5.70;;;3.30;;
86335;SDS011;77070;0.000;0.000;2024-03-23T06:32:53;4.60;;;2.80;;
86335;SDS011;77070;0.000;0.000;2024-03-23T06:35:20;6.50;;;2.70;;
86335;SDS011;77070;0.000;0.000;2024-03-23T06:37:47;5.20;;;2.40;;
86335;SDS011;77070;0.000;0.000;2024-03-23T06:40:14;5.50;;;2.40;;
86335;SDS011;77070;0.000;0.000;2024-03-23T06:42:41;4.20;;;2.50;;
86335;SDS011;77070;0.000;0.000;2024-03-23T06:45:08;8.70;;;3.10;;
86335;SDS011;77070;0.000;0.000;2024-03-23T06:47:35;5.20;;;3.00;;
86335;SDS011;77070;0.000;0.000;2024-03-23T06:50:03;3.20;;;2.10;;
86335;SDS011;77070;0.000;0.000;2024-03-23T06:52:30;6.70;;;4.20;;
86335;SDS011;77070;0.000;0.000;2024-03-23T06:54:57;5.40;;;3.10;;
86335;SDS011;77070;0.000;0.000;2024-03-23T06:57:25;6.00;;;3.20;;
86335;SDS011;77070;0.000;0.000;2024-03-23T06:59:52;2.90;;;1.70;;
86335;SDS011;77070;0.000;0.000;2024-03-23T07:02:19;4.50;;;2.70;;
86335;SDS011;77070;0.000;0.000;2024-03-23T07:04:46;19.60;;;7.50;;
86335;SDS011;77070;0.000;0.000;2024-03-23T07:07:13;83.80;;;30.40;;
86335;SDS011;77070;0.000;0.000;2024-03-23T07:09:40;41.40;;;14.30;;
86335;SDS011;77070;0.000;0.000;2024-03-23T07:12:07;89.00;;;29.70;;
86335;SDS011;77070;0.000;0.000;2024-03-23T07:14:34;77.40;;;22.70;;
86335;SDS011;77070;0.000;0.000;2024-03-23T07:17:01;27.40;;;9.90;;
86335;SDS011;77070;0.000;0.000;2024-03-23T07:19:28;19.20;;;7.30;;
86335;SDS011;77070;0.000;0.000;2024-03-23T07:21:55;10.30;;;3.60;;
86335;SDS011;77070;0.000;0.000;2024-03-23T07:24:22;12.60;;;4.10;;
86335;SDS011;77070;0.000;0.000;2024-03-23T07:26:49;11.30;;;3.60;;
86335;SDS011;77070;0.000;0.000;2024-03-23T07:29:17;10.00;;;4.70;;
86335;SDS011;77070;0.000;0.000;2024-03-23T07:31:45;11.50;;;5.10;;
86335;SDS011;77070;0.000;0.000;2024-03-23T07:34:12;7.70;;;3.00;;
86335;SDS011;77070;0.000;0.000;2024-03-23T07:36:40;9.60;;;4.80;;
86335;SDS011;77070;0.000;0.000;2024-03-23T07:39:07;10.00;;;4.80;;
86335;SDS011;77070;0.000;0.000;2024-03-23T07:41:34;12.00;;;5.40;;
86335;SDS011;77070;0.000;0.000;2024-03-23T07:44:02;7.50;;;4.10;;
86335;SDS011;77070;0.000;0.000;2024-03-23T07:46:29;5.60;;;3.40;;
86335;SDS011;77070;0.000;0.000;2024-03-23T07:48:56;9.00;;;4.50;;
86335;SDS011;77070;0.000;0.000;2024-03-23T07:51:23;15.10;;;5.70;;
86335;SDS011;77070;0.000;0.000;2024-03-23T07:53:50;18.60;;;7.40;;
86335;SDS011;77070;0.000;0.000;2024-03-23T07:56:17;13.70;;;5.50;;
86335;SDS011;77070;0.000;0.000;2024-03-23T07:58:48;10.90;;;4.90;;
86335;SDS011;77070;0.000;0.000;2024-03-23T08:01:15;11.20;;;5.00;;
86335;SDS011;77070;0.000;0.000;2024-03-23T08:03:44;9.90;;;3.70;;
86335;SDS011;77070;0.000;0.000;2024-03-23T08:06:18;9.30;;;4.60;;
86335;SDS011;77070;0.000;0.000;2024-03-23T08:08:47;20.80;;;9.60;;
86335;SDS011;77070;0.000;0.000;2024-03-23T08:13:44;11.50;;;5.60;;
86335;SDS011;77070;0.000;0.000;2024-03-23T08:16:34;11.80;;;5.40;;
86335;SDS011;77070;0.000;0.000;2024-03-23T08:19:01;21.30;;;9.70;;
86335;SDS011;77070;0.000;0.000;2024-03-23T08:21:30;8.40;;;4.20;;
86335;SDS011;77070;0.000;0.000;2024-03-23T08:24:05;6.80;;;3.70;;
86335;SDS011;77070;0.000;0.000;2024-03-23T08:26:32;8.50;;;4.30;;
86335;SDS011;77070;0.000;0.000;2024-03-23T08:28:59;7.40;;;4.00;;
86335;SDS011;77070;0.000;0.000;2024-03-23T08:31:26;8.70;;;2.70;;
86335;SDS011;77070;0.000;0.000;2024-03-23T08:33:54;7.60;;;4.40;;
86335;SDS011;77070;0.000;0.000;2024-03-23T08:36:24;10.10;;;4.30;;
86335;SDS011;77070;0.000;0.000;2024-03-23T08:39:29;9.90;;;4.80;;
86335;SDS011;77070;0.000;0.000;2024-03-23T08:41:56;10.90;;;5.00;;
86335;SDS011;77070;0.000;0.000;2024-03-23T08:44:24;9.30;;;4.60;;
86335;SDS011;77070;0.000;0.000;2024-03-23T08:46:51;7.30;;;3.80;;
86335;SDS011;77070;0.000;0.000;2024-03-23T08:49:22;8.00;;;4.30;;
86335;SDS011;77070;0.000;0.000;2024-03-23T08:51:50;10.90;;;5.60;;
86335;SDS011;77070;0.000;0.000;2024-03-23T08:54:18;9.90;;;4.30;;
86335;SDS011;77070;0.000;0.000;2024-03-23T08:56:46;9.70;;;5.30;;
86335;SDS011;77070;0.000;0.000;2024-03-23T08:59:13;11.10;;;5.00;;
86335;SDS011;77070;0.000;0.000;2024-03-23T09:01:40;16.00;;;5.80;;
86335;SDS011;77070;0.000;0.000;2024-03-23T09:04:07;14.30;;;6.90;;
86335;SDS011;77070;0.000;0.000;2024-03-23T09:06:34;13.50;;;6.10;;
86335;SDS011;77070;0.000;0.000;2024-03-23T09:09:01;9.00;;;4.00;;
86335;SDS011;77070;0.000;0.000;2024-03-23T09:11:29;9.20;;;5.40;;
86335;SDS011;77070;0.000;0.000;2024-03-23T09:13:56;10.60;;;4.40;;
86335;SDS011;77070;0.000;0.000;2024-03-23T09:16:23;7.30;;;3.80;;
86335;SDS011;77070;0.000;0.000;2024-03-23T09:18:51;8.50;;;3.70;;
86335;SDS011;77070;0.000;0.000;2024-03-23T09:21:19;8.00;;;4.20;;
86335;SDS011;77070;0.000;0.000;2024-03-23T09:23:46;7.20;;;3.70;;
86335;SDS011;77070;0.000;0.000;2024-03-23T09:26:13;8.30;;;5.10;;
86335;SDS011;77070;0.000;0.000;2024-03-23T09:28:40;8.00;;;5.00;;
86335;SDS011;77070;0.000;0.000;2024-03-23T09:31:10;10.50;;;4.90;;
86335;SDS011;77070;0.000;0.000;2024-03-23T09:33:41;7.50;;;4.40;;
86335;SDS011;77070;0.000;0.000;2024-03-23T09:36:11;8.50;;;4.20;;
86335;SDS011;77070;0.000;0.000;2024-03-23T09:38:38;7.70;;;4.00;;
86335;SDS011;77070;0.000;0.000;2024-03-23T09:41:09;5.40;;;3.20;;
86335;SDS011;77070;0.000;0.000;2024-03-23T09:43:36;4.80;;;2.70;;
86335;SDS011;77070;0.000;0.000;2024-03-23T09:46:07;6.70;;;4.10;;
86335;SDS011;77070;0.000;0.000;2024-03-23T09:48:35;6.00;;;3.30;;
86335;SDS011;77070;0.000;0.000;2024-03-23T09:51:03;5.80;;;3.40;;
86335;SDS011;77070;0.000;0.000;2024-03-23T09:53:30;5.90;;;3.60;;
86335;SDS011;77070;0.000;0.000;2024-03-23T09:55:59;5.50;;;2.60;;
86335;SDS011;77070;0.000;0.000;2024-03-23T09:58:25;6.00;;;3.00;;
86335;SDS011;77070;0.000;0.000;2024-03-23T10:00:52;3.90;;;2.30;;
86335;SDS011;77070;0.000;0.000;2024-03-23T10:03:19;4.70;;;2.70;;
86335;SDS011;77070;0.000;0.000;2024-03-23T10:05:46;4.60;;;2.90;;
86335;SDS011;77070;0.000;0.000;2024-03-23T10:10:40;3.60;;;2.40;;
86335;SDS011;77070;0.000;0.000;2024-03-23T10:13:11;6.30;;;2.20;;
86335;SDS011;77070;0.000;0.000;2024-03-23T10:15:57;4.90;;;2.70;;
86335;SDS011;77070;0.000;0.000;2024-03-23T10:18:25;4.50;;;2.30;;
86335;SDS011;77070;0.000;0.000;2024-03-23T10:23:38;3.30;;;1.80;;
86335;SDS011;77070;0.000;0.000;2024-03-23T10:26:17;3.80;;;2.30;;
86335;SDS011;77070;0.000;0.000;2024-03-23T10:31:34;6.90;;;3.20;;
86335;SDS011;77070;0.000;0.000;2024-03-23T10:34:06;6.10;;;2.20;;
86335;SDS011;77070;0.000;0.000;2024-03-23T10:36:34;3.60;;;2.00;;
86335;SDS011;77070;0.000;0.000;2024-03-23T10:39:02;4.00;;;1.80;;
86335;SDS011;77070;0.000;0.000;2024-03-23T10:41:30;2.20;;;1.10;;
86335;SDS011;77070;0.000;0.000;2024-03-23T10:46:26;3.60;;;1.80;;
86335;SDS011;77070;0.000;0.000;2024-03-23T10:48:53;2.20;;;1.30;;
86335;SDS011;77070;0.000;0.000;2024-03-23T10:51:20;2.60;;;1.40;;
86335;SDS011;77070;0.000;0.000;2024-03-23T10:53:47;8.80;;;2.20;;
86335;SDS011;77070;0.000;0.000;2024-03-23T10:56:15;4.60;;;2.20;;
86335;SDS011;77070;0.000;0.000;2024-03-23T10:58:46;3.30;;;1.80;;
86335;SDS011;77070;0.000;0.000;2024-03-23T11:01:16;3.00;;;1.50;;
86335;SDS011;77070;0.000;0.000;2024-03-23T11:03:46;2.80;;;1.30;;
86335;SDS011;77070;0.000;0.000;2024-03-23T11:09:01;3.10;;;1.70;;
86335;SDS011;77070;0.000;0.000;2024-03-23T11:11:29;5.50;;;2.10;;
86335;SDS011;77070;0.000;0.000;2024-03-23T11:14:01;2.90;;;1.80;;
86335;SDS011;77070;0.000;0.000;2024-03-23T11:16:48;3.00;;;1.70;;
86335;SDS011;77070;0.000;0.000;2024-03-23T11:19:38;2.10;;;1.30;;
86335;SDS011;77070;0.000;0.000;2024-03-23T11:22:07;2.70;;;1.50;;
86335;SDS011;77070;0.000;0.000;2024-03-23T11:24:34;2.90;;;1.40;;
86335;SDS011;77070;0.000;0.000;2024-03-23T11:27:02;3.60;;;2.30;;
86335;SDS011;77070;0.000;0.000;2024-03-23T11:29:30;3.40;;;1.60;;
86335;SDS011;77070;0.000;0.000;2024-03-23T11:31:57;3.20;;;1.60;;
86335;SDS011;77070;0.000;0.000;2024-03-23T11:34:25;2.40;;;1.30;;
86335;SDS011;77070;0.000;0.000;2024-03-23T11:37:02;2.30;;;1.80;;
86335;SDS011;77070;0.000;0.000;2024-03-23T11:39:31;2.80;;;1.30;;
86335;SDS011;77070;0.000;0.000;2024-03-23T11:41:58;3.10;;;1.70;;
86335;SDS011;77070;0.000;0.000;2024-03-23T11:44:25;5.00;;;1.80;;
86335;SDS011;77070;0.000;0.000;2024-03-23T11:46:53;5.40;;;2.20;;
86335;SDS011;77070;0.000;0.000;2024-03-23T11:51:48;2.50;;;1.70;;
86335;SDS011;77070;0.000;0.000;2024-03-23T11:54:15;2.00;;;1.40;;
86335;SDS011;77070;0.000;0.000;2024-03-23T11:57:03;4.90;;;2.00;;
86335;SDS011;77070;0.000;0.000;2024-03-23T11:59:35;3.20;;;2.00;;
86335;SDS011;77070;0.000;0.000;2024-03-23T12:02:08;3.00;;;1.80;;
86335;SDS011;77070;0.000;0.000;2024-03-23T12:04:37;3.60;;;1.70;;
86335;SDS011;77070;0.000;0.000;2024-03-23T12:07:10;4.50;;;1.90;;
86335;SDS011;77070;0.000;0.000;2024-03-23T12:09:37;3.50;;;1.60;;
86335;SDS011;77070;0.000;0.000;2024-03-23T12:12:13;5.40;;;2.10;;
86335;SDS011;77070;0.000;0.000;2024-03-23T12:14:43;3.50;;;1.70;;
86335;SDS011;77070;0.000;0.000;2024-03-23T12:17:31;2.40;;;1.50;;
86335;SDS011;77070;0.000;0.000;2024-03-23T12:19:59;1.90;;;1.20;;
86335;SDS011;77070;0.000;0.000;2024-03-23T12:22:26;2.70;;;1.60;;
86335;SDS011;77070;0.000;0.000;2024-03-23T12:24:53;3.50;;;1.50;;
86335;SDS011;77070;0.000;0.000;2024-03-23T12:27:20;2.60;;;1.30;;
86335;SDS011;77070;0.000;0.000;2024-03-23T12:29:47;2.90;;;1.70;;
86335;SDS011;77070;0.000;0.000;2024-03-23T12:32:14;3.00;;;1.70;;
86335;SDS011;77070;0.000;0.000;2024-03-23T12:34:41;3.70;;;1.70;;
86335;SDS011;77070;0.000;0.000;2024-03-23T12:37:08;2.50;;;1.40;;
86335;SDS011;77070;0.000;0.000;2024-03-23T12:39:36;2.70;;;1.40;;
86335;SDS011;77070;0.000;0.000;2024-03-23T12:42:03;2.10;;;1.50;;
86335;SDS011;77070;0.000;0.000;2024-03-23T12:44:31;2.90;;;1.40;;
86335;SDS011;77070;0.000;0.000;2024-03-23T12:46:58;4.80;;;1.80;;
86335;SDS011;77070;0.000;0.000;2024-03-23T12:49:25;2.50;;;1.50;;
86335;SDS011;77070;0.000;0.000;2024-03-23T12:51:55;2.90;;;1.50;;
86335;SDS011;77070;0.000;0.000;2024-03-23T12:54:23;2.10;;;1.70;;
86335;SDS011;77070;0.000;0.000;2024-03-23T12:56:51;4.00;;;1.50;;
86335;SDS011;77070;0.000;0.000;2024-03-23T12:59:18;2.70;;;1.60;;
86335;SDS011;77070;0.000;0.000;2024-03-23T13:01:45;2.60;;;1.20;;
86335;SDS011;77070;0.000;0.000;2024-03-23T13:04:12;3.80;;;1.80;;
86335;SDS011;77070;0.000;0.000;2024-03-23T13:06:39;3.80;;;2.00;;
86335;SDS011;77070;0.000;0.000;2024-03-23T13:09:06;4.00;;;1.60;;
86335;SDS011;77070;0.000;0.000;2024-03-23T13:11:33;2.50;;;1.60;;
86335;SDS011;77070;0.000;0.000;2024-03-23T13:14:00;3.10;;;1.80;;
86335;SDS011;77070;0.000;0.000;2024-03-23T13:16:27;4.20;;;1.50;;
86335;SDS011;77070;0.000;0.000;2024-03-23T13:18:54;2.10;;;1.20;;
86335;SDS011;77070;0.000;0.000;2024-03-23T13:21:21;3.40;;;1.90;;
86335;SDS011;77070;0.000;0.000;2024-03-23T13:23:48;4.20;;;2.10;;
86335;SDS011;77070;0.000;0.000;2024-03-23T13:26:16;3.30;;;2.00;;
86335;SDS011;77070;0.000;0.000;2024-03-23T13:28:43;3.90;;;1.70;;
86335;SDS011;77070;0.000;0.000;2024-03-23T13:31:11;3.90;;;1.90;;
86335;SDS011;77070;0.000;0.000;2024-03-23T13:33:38;3.70;;;1.60;;
86335;SDS011;77070;0.000;0.000;2024-03-23T13:36:10;5.00;;;1.50;;
86335;SDS011;77070;0.000;0.000;2024-03-23T13:38:37;2.90;;;1.20;;
86335;SDS011;77070;0.000;0.000;2024-03-23T13:41:04;4.80;;;1.10;;
86335;SDS011;77070;0.000;0.000;2024-03-23T13:43:33;2.90;;;1.00;;
86335;SDS011;77070;0.000;0.000;2024-03-23T13:46:00;1.70;;;0.40;;
86335;SDS011;77070;0.000;0.000;2024-03-23T13:48:28;4.00;;;0.70;;
86335;SDS011;77070;0.000;0.000;2024-03-23T13:51:02;1.30;;;0.70;;
86335;SDS011;77070;0.000;0.000;2024-03-23T13:53:30;1.70;;;0.60;;
86335;SDS011;77070;0.000;0.000;2024-03-23T13:56:00;2.40;;;0.60;;
86335;SDS011;77070;0.000;0.000;2024-03-23T13:58:27;1.30;;;0.90;;
86335;SDS011;77070;0.000;0.000;2024-03-23T14:00:56;2.30;;;0.80;;
86335;SDS011;77070;0.000;0.000;2024-03-23T14:03:24;1.00;;;0.70;;
86335;SDS011;77070;0.000;0.000;2024-03-23T14:05:52;1.70;;;0.70;;
86335;SDS011;77070;0.000;0.000;2024-03-23T14:08:21;1.10;;;0.70;;
86335;SDS011;77070;0.000;0.000;2024-03-23T14:10:48;0.70;;;0.40;;
86335;SDS011;77070;0.000;0.000;2024-03-23T14:13:15;0.80;;;0.50;;
86335;SDS011;77070;0.000;0.000;2024-03-23T14:15:42;1.80;;;0.80;;
86335;SDS011;77070;0.000;0.000;2024-03-23T14:18:09;1.50;;;0.50;;
86335;SDS011;77070;0.000;0.000;2024-03-23T14:20:36;1.30;;;0.70;;
86335;SDS011;77070;0.000;0.000;2024-03-23T14:23:03;2.20;;;0.70;;
86335;SDS011;77070;0.000;0.000;2024-03-23T14:25:30;1.50;;;0.80;;
86335;SDS011;77070;0.000;0.000;2024-03-23T14:27:57;1.90;;;0.80;;
86335;SDS011;77070;0.000;0.000;2024-03-23T14:30:24;2.10;;;1.00;;
86335;SDS011;77070;0.000;0.000;2024-03-23T14:32:51;1.70;;;0.80;;
86335;SDS011;77070;0.000;0.000;2024-03-23T14:35:19;1.20;;;0.60;;
86335;SDS011;77070;0.000;0.000;2024-03-23T14:37:46;1.20;;;0.60;;
86335;SDS011;77070;0.000;0.000;2024-03-23T14:40:13;1.50;;;0.70;;
86335;SDS011;77070;0.000;0.000;2024-03-23T14:42:40;1.60;;;0.70;;
86335;SDS011;77070;0.000;0.000;2024-03-23T14:45:08;1.20;;;0.70;;
86335;SDS011;77070;0.000;0.000;2024-03-23T14:47:35;1.30;;;0.60;;
86335;SDS011;77070;0.000;0.000;2024-03-23T14:50:02;2.10;;;0.80;;
86335;SDS011;77070;0.000;0.000;2024-03-23T14:52:29;3.80;;;2.00;;
86335;SDS011;77070;0.000;0.000;2024-03-23T14:54:56;2.50;;;0.80;;
86335;SDS011;77070;0.000;0.000;2024-03-23T14:57:23;1.00;;;0.60;;
86335;SDS011;77070;0.000;0.000;2024-03-23T14:59:50;1.80;;;0.70;;
86335;SDS011;77070;0.000;0.000;2024-03-23T15:02:18;0.90;;;0.50;;
86335;SDS011;77070;0.000;0.000;2024-03-23T15:04:45;1.10;;;0.60;;
86335;SDS011;77070;0.000;0.000;2024-03-23T15:07:12;3.70;;;0.80;;
86335;SDS011;77070;0.000;0.000;2024-03-23T15:09:39;2.60;;;0.70;;
86335;SDS011;77070;0.000;0.000;2024-03-23T15:12:06;1.10;;;0.50;;
86335;SDS011;77070;0.000;0.000;2024-03-23T15:14:34;0.90;;;0.40;;
86335;SDS011;77070;0.000;0.000;2024-03-23T15:17:01;1.80;;;0.70;;
86335;SDS011;77070;0.000;0.000;2024-03-23T15:19:31;0.80;;;0.50;;
86335;SDS011;77070;0.000;0.000;2024-03-23T15:21:58;2.00;;;0.80;;
86335;SDS011;77070;0.000;0.000;2024-03-23T15:24:25;1.40;;;0.50;;
86335;SDS011;77070;0.000;0.000;2024-03-23T15:26:52;2.40;;;0.70;;
86335;SDS011;77070;0.000;0.000;2024-03-23T15:29:20;2.30;;;1.80;;
86335;SDS011;77070;0.000;0.000;2024-03-23T15:31:49;1.40;;;1.00;;
86335;SDS011;77070;0.000;0.000;2024-03-23T15:34:19;1.10;;;0.70;;
86335;SDS011;77070;0.000;0.000;2024-03-23T15:36:48;1.70;;;0.90;;
86335;SDS011;77070;0.000;0.000;2024-03-23T15:39:17;1.30;;;0.80;;
86335;SDS011;77070;0.000;0.000;2024-03-23T15:41:44;2.20;;;1.10;;
86335;SDS011;77070;0.000;0.000;2024-03-23T15:44:12;1.60;;;0.90;;
86335;SDS011;77070;0.000;0.000;2024-03-23T15:46:39;2.70;;;1.20;;
86335;SDS011;77070;0.000;0.000;2024-03-23T15:49:07;2.90;;;1.20;;
86335;SDS011;77070;0.000;0.000;2024-03-23T15:51:34;1.20;;;0.80;;
86335;SDS011;77070;0.000;0.000;2024-03-23T15:54:03;2.20;;;1.10;;
86335;SDS011;77070;0.000;0.000;2024-03-23T15:56:30;1.40;;;0.90;;
86335;SDS011;77070;0.000;0.000;2024-03-23T15:58:57;1.70;;;0.80;;
86335;SDS011;77070;0.000;0.000;2024-03-23T16:01:32;1.80;;;1.10;;
86335;SDS011;77070;0.000;0.000;2024-03-23T16:04:02;2.50;;;1.50;;
86335;SDS011;77070;0.000;0.000;2024-03-23T16:06:30;2.30;;;0.90;;
86335;SDS011;77070;0.000;0.000;2024-03-23T16:08:58;1.50;;;1.00;;
86335;SDS011;77070;0.000;0.000;2024-03-23T16:11:25;2.30;;;1.20;;
86335;SDS011;77070;0.000;0.000;2024-03-23T16:13:52;1.80;;;1.00;;
86335;SDS011;77070;0.000;0.000;2024-03-23T16:16:19;1.60;;;1.00;;
86335;SDS011;77070;0.000;0.000;2024-03-23T16:18:49;1.70;;;1.10;;
86335;SDS011;77070;0.000;0.000;2024-03-23T16:21:16;3.10;;;1.30;;